Tiempo atmosférico en la estación meteorológica de Villanueva De Córdoba, Córdoba (740 m.)



Fecha
DESCASC
Temp. máxima en grados centígrados (hora)
DESCASC
Temp. mínima en grados centígrados (hora)
DESCASC
Temp. media en grados centígrados
DESCASC
Racha de viento máxima en m/sg (hora)
DESCASC
Velocidad máxima media en intervalos de 10 minutos(hora)
DESCASC
Precipitaciones diarias en mm
DESCASC
Precipitaciones de 00:00 a 06:00 en mm
DESCASC
Precipitaciones de 06:00 a 12:00 en mm
DESCASC
Precipitaciones de 12:00 a 18:00 en mm
DESCASC
Precipitaciones de 18:00 a 24:00 en mm
DESCASC
20-09-2018 31.6 (16:00) 18.2 (07:50) 24.9 7.5 (16:30) 3.89 (18:50) 0 0 0 0 0
19-09-2018 30.6 (18:00) 17.5 (08:30) 24.1 8.33 (16:20) 4.72 (16:20) 0 0 0 0 0
18-09-2018 28.5 (13:40) 16.4 (06:00) 22.4 11.39 (15:50) 5.28 (15:50) 0 0 0 0 0
17-09-2018 30 (17:50) 17 (08:20) 23.5 8.61 (17:20) 4.44 (21:20) 0.2 0 0 0 0.2
16-09-2018 29.2 (17:40) 15.9 (00:00) 22.6 6.11 (17:50) 2.78 (15:20) 0 0 0 0 0
15-09-2018 28.5 (17:20) 15.5 (00:00) 22 8.61 (17:20) 4.17 (17:40) 0 0 0 0 0
14-09-2018 30.9 (15:30) 17.9 (00:00) 24.4 17.22 (17:30) 7.22 (17:40) 1.8 0 0 1 0.8
13-09-2018 32 (16:10) 18.3 (00:00) 25.1 7.78 (22:50) 4.17 (14:40) 0 0 0 0 0
12-09-2018 31.9 (16:40) 17.5 (00:00) 24.7 8.61 (20:00) 5 (20:00) 0 0 0 0 0
11-09-2018 29.5 (17:10) 17.2 (00:00) 23.4 7.5 (16:20) 3.61 (17:10) 0 0 0 0 0
10-09-2018 27.2 (17:50) 13.6 (00:00) 20.4 11.67 (14:00) 6.39 (14:00) 0 0 0 0 0
09-09-2018 25 (16:40) 14.6 (00:00) 19.8 12.22 (19:00) 6.39 (19:00) 18.4 0.8 0 5.6 12
08-09-2018 24.1 (11:30) 15.4 (00:00) 19.8 7.5 (18:20) 3.61 (15:20) 0.2 0 0 0.2 0
07-09-2018 28.9 (16:10) 15 (00:00) 21.9 10.56 (16:20) 5.28 (17:50) 0 0 0 0 0
06-09-2018 28.8 (17:10) 15.5 (00:00) 22.1 6.67 (18:00) 3.89 (18:00) 0 0 0 0 0
05-09-2018 27.2 (16:40) 14 (00:00) 20.6 9.72 (17:40) 4.72 (19:20) 0 0 0 0 0
04-09-2018 28.4 (17:10) 14.2 (00:00) 21.3 9.44 (20:00) 5 (20:10) 0 0 0 0 0
03-09-2018 31 (16:10) 18.4 (00:00) 24.7 11.11 (15:20) 5.56 (19:20) 0 0 0 0 0
02-09-2018 36.8 (17:30) 20.4 (00:00) 28.6 9.17 (18:20) 3.89 (19:30) 0 0 0 0 0
01-09-2018 36.5 (16:30) 21.1 (00:00) 28.8 9.17 (16:50) 4.44 (19:30) 0 0 0 0 0
31-08-2018 35.3 (16:40) 19.8 (00:00) 27.5 7.78 (16:30) 3.33 (16:00) 0 0 0 0 0
30-08-2018 33.5 (16:30) 18.1 (00:00) 25.8 8.89 (16:00) 3.61 (17:30) 0 0 0 0 0
29-08-2018 33 (17:10) 18 (00:00) 25.5 6.94 (14:00) 3.33 (17:50) 0 0 0 0 0
28-08-2018 34.2 (16:20) 20.8 (00:00) 27.5 11.67 (16:30) 5.83 (17:50) 0 0 0 0 0
27-08-2018 36.6 (14:10) 22 (00:00) 29.3 10.83 (19:50) 6.39 (14:30) 0 0 0 0 0
26-08-2018 36.2 (17:20) 21.1 (00:00) 28.7 9.72 (16:20) 4.72 (15:30) 0 0 0 0 0
25-08-2018 35.4 (16:00) 22.1 (00:00) 28.8 12.22 (16:40) 4.44 (16:40) 0 0 0 0 0
24-08-2018 35 (17:40) 19.6 (00:00) 27.3 8.33 (18:00) 4.17 (18:00) 0 0 0 0 0
23-08-2018 34.4 (15:20) 18.9 (00:00) 26.7 11.67 (20:40) 6.11 (20:40) 1.2 0 0 0.4 0.8

Gráficas

Temp. máximas Temp. mínimas Temp. medias Precipitaciones Rachas de viento máximas Velocidades máximas media en intervalos de 10 minutos

Datos horarios

Fecha y hora oficial Temperatura (ºC) Velocidad del viento (km/h) Dirección del viento Racha (km/h) Dirección de racha Precipitación (mm) Presión (hPa) Tendencia (hPa) Humedad (%)
2018-09-21 23:00:00 23.8 6 Sudoeste 9 Sudoeste 0 935.7 1.5 36
2018-09-21 22:00:00 24.7 5 Sudoeste 8 Sudoeste 0 935.3 1.3 34
2018-09-21 21:00:00 26.1 5 Sur 8 Sur 0 934.6 0.7 31
2018-09-21 20:00:00 29.7 3 Sur 8 Sur 0 934.2 0.2 27
2018-09-21 19:00:00 30.6 5 Sur 16 Sur 0 934 -0.2 25
2018-09-21 18:00:00 29.6 5 Sudeste 15 Sudeste 0 933.9 -0.8 27
2018-09-21 17:00:00 29.4 9 Sudeste 19 Sudeste 0 934 -1.2 30
2018-09-21 16:00:00 29.2 4 Este 15 Este 0 934.2 -1.6 29
2018-09-21 15:00:00 30.3 10 Sudeste 18 Sudeste 0 934.7 -1.2 29
2018-09-21 14:00:00 30.4 7 Sudeste 17 Sudoeste 0 935.2 -0.1 32
2018-09-21 13:00:00 28.7 6 Sudoeste 14 Oeste 0 935.8 1.1 35
2018-09-21 12:00:00 27.5 6 Sudoeste 14 Sudoeste 0 935.9 1.2 44
2018-09-21 11:00:00 25 6 Sur 14 Sur 0 935.3 1.1 55
2018-09-21 10:00:00 22 9 Sur 14 Sur 0 934.7 0.9 69
2018-09-21 09:00:00 18.5 -- -- -- -- 0 934.7 1 83
2018-09-21 08:00:00 17.8 8 Sur 15 Sur 0 934.2 0.3 82
2018-09-21 07:00:00 17.9 8 Sudeste 14 Sur 0 933.8 0 78
2018-09-21 06:00:00 18 8 Sur 14 Sur 0 933.7 -0.3 74
2018-09-21 05:00:00 18.5 9 Sur 17 Sur 0 933.9 -0.2 69
2018-09-21 04:00:00 19.3 9 Sur 15 Sur 0 933.8 -0.5 65
2018-09-21 03:00:00 19.8 9 Sur 14 Sudeste 0 934 -0.3 61
2018-09-21 02:00:00 20.3 6 Sur 10 Sudoeste 0 934.1 -0.2 53
2018-09-21 01:00:00 20.7 4 Sur 9 Sur 0 934.3 0.4 51
2018-09-21 00:00:00 21.7 7 Oeste 9 Oeste 0 934.3 0.7 46
2018-09-20 23:00:00 21.4 6 Sudoeste 10 Sudoeste 0 934.3 0.8 47
2018-09-20 22:00:00 22.3 7 Sudoeste 11 Sudoeste 0 933.9 0.6 45
2018-09-20 21:00:00 23.7 8 Sudoeste 11 Sudoeste 0 933.6 0.2 43
2018-09-20 20:00:00 25.8 8 Sudoeste 20 Sudoeste 0 933.5 -0.3 37
2018-09-20 19:00:00 27.6 12 Sudoeste 26 Sur 0 933.3 -0.9 34
2018-09-20 18:00:00 30.5 12 Sur 24 Sur 0 933.4 -1.5 23
2018-09-20 17:00:00 31.3 12 Sudoeste 27 Sur 0 933.8 -1.8 23
2018-09-20 16:00:00 31.6 10 Sur 25 Sudeste 0 934.2 -1.9 23
2018-09-20 15:00:00 30.6 8 Sur 22 Sur 0 934.9 -1.4 27
2018-09-20 14:00:00 29.6 10 Sur 24 Sudeste 0 935.6 -0.7 30
2018-09-20 13:00:00 27.5 10 Sudeste 19 Sur 0 936.1 0.2 40
2018-09-20 12:00:00 26.8 9 Sur 17 Sur 0 936.3 0.6 47
2018-09-20 11:00:00 24.4 8 Sur 20 Sur 0 936.3 0.8 56
2018-09-20 10:00:00 21.7 9 Sur 20 Sudoeste 0 935.9 0.7 66
2018-09-20 09:00:00 19 9 Sur 18 Sur 0 935.7 0.4 79
2018-09-20 08:00:00 18.2 10 Sur 18 Sur 0 935.5 0.2 82
2018-09-20 07:00:00 18.5 11 Sur 20 Sur 0 935.2 -0.3 81
2018-09-20 06:00:00 18.8 11 Sur 19 Sur 0 935.3 -0.3 77
2018-09-20 05:00:00 19 8 Sudeste 15 Sudeste 0 935.3 -0.6 74
2018-09-20 04:00:00 20 7 Sudeste 16 Sur 0 935.5 -0.6 66
2018-09-20 03:00:00 20.7 9 Sur 18 Sur 0 935.6 -0.5 63
2018-09-20 02:00:00 21.4 9 Sur 18 Sudeste 0 935.9 -0.1 58
2018-09-20 01:00:00 21.8 8 Sur 14 Sur 0 936.1 0.4 54
2018-09-20 00:00:00 23.7 7 Sudeste 13 Sudeste 0 936.1 0.9 45
2018-09-19 23:00:00 24.2 6 Sudeste 9 Sur 0 936 0.9 45
2018-09-19 22:00:00 24.3 5 Sur 8 Sudeste 0 935.7 0.9 46
2018-09-19 21:00:00 25.1 4 Este 6 Sudeste 0 935.2 0.7 44
2018-09-19 20:00:00 27 2 Norte 11 Sudoeste 0 935.1 0.4 40
2018-09-19 19:00:00 29.1 4 Sur 15 Sudeste 0 934.8 -0.2 32
2018-09-19 18:00:00 30.3 8 Sur 19 Sur 0 934.5 -0.8 31
2018-09-19 17:00:00 30.2 10 Sur 30 Sur 0 934.7 -1.1 33
2018-09-19 16:00:00 29.1 7 Este 17 Sudeste 0 935 -1.3 31
2018-09-19 15:00:00 28.5 8 Nordeste 19 Norte 0 935.3 -1.1 33
2018-09-19 14:00:00 29 6 Norte 21 Este 0 935.8 -0.1 34
2018-09-19 13:00:00 28.6 3 Sur 14 Sudeste 0 936.3 0.9 37
2018-09-19 12:00:00 27.6 3 Sur 10 Oeste 0 936.4 1.4 44
2018-09-19 11:00:00 25.1 3 Este 9 Nordeste 0 935.9 1.4 50
2018-09-19 10:00:00 21.6 6 Nordeste 11 Este 0 935.4 1.3 66
2018-09-19 09:00:00 18.5 7 Sudeste 13 Sur 0 935 1 77
2018-09-19 08:00:00 17.7 8 Sur 13 Sur 0 934.5 0.5 79
2018-09-19 07:00:00 18.5 7 Sur 12 Sur 0 934.1 0.2 75
2018-09-19 06:00:00 19.7 5 Sudeste 10 Sudeste 0 934 -0.1 69
2018-09-19 05:00:00 19 5 Sur 11 Sudeste 0 934 -0.2 72
2018-09-19 04:00:00 19.9 4 Noroeste 7 Norte 0 933.9 -0.3 68
2018-09-19 03:00:00 20.3 4 Nordeste 6 Norte 0 934.1 -0.2 67
2018-09-19 02:00:00 19.7 3 Sur 8 Nordeste 0 934.2 -0.1 71
2018-09-19 01:00:00 20.3 6 Nordeste 8 Nordeste 0 934.2 0.7 71
2018-09-19 00:00:00 20.5 5 Norte 9 Noroeste 0 934.3 1.4 71
2018-09-18 23:00:00 20.2 5 Nordeste 12 Nordeste 0 934.3 2 73
2018-09-18 22:00:00 21.1 6 Nordeste 8 Nordeste 0 933.5 1.2 73
2018-09-18 21:00:00 22.8 5 Oeste 11 Oeste 0 932.9 0.9 65
2018-09-18 20:00:00 23.8 5 Oeste 18 Oeste 0 932.3 0.3 61
2018-09-18 19:00:00 24.9 11 Oeste 21 Sudoeste 0 932.3 -0.1 58
2018-09-18 18:00:00 25.9 11 Sudoeste 19 Sudoeste 0 932 -0.2 51
2018-09-18 17:00:00 24.6 8 Sudoeste 30 Sur 0 932 -0.5 47
2018-09-18 16:00:00 21.7 14 Sur 41 Sur 0 932.4 -0.4 61
2018-09-18 15:00:00 25.7 10 Este 38 Nordeste 0 932.2 -0.9 45
2018-09-18 14:00:00 27.1 9 Sudoeste 20 Sur 0 932.5 -0.4 46
2018-09-18 13:00:00 27 4 Oeste 14 Sudoeste 0 932.8 0.5 46
2018-09-18 12:00:00 26 4 Sur 12 Sudeste 0 933.1 1 55
2018-09-18 11:00:00 24.2 5 Sur 13 Sudoeste 0 932.9 1 61
2018-09-18 10:00:00 21.9 5 Sudeste 8 Este 0 932.3 0.8 67
2018-09-18 09:00:00 18.8 4 Sudeste 10 Sudeste 0 932.1 0.7 74
2018-09-18 08:00:00 17.9 6 Sudeste 10 Sudeste 0 931.9 0.6 74
2018-09-18 07:00:00 17.8 5 Sudeste 11 Sudeste 0 931.5 0.4 72
2018-09-18 06:00:00 16.4 6 Este 13 Sudeste 0 931.4 0.2 80
2018-09-18 05:00:00 17.7 7 Sur 13 Sudeste 0 931.3 -0.3 74
2018-09-18 04:00:00 17.8 8 Sudeste 15 Sudeste 0 931.1 -0.9 76
2018-09-18 03:00:00 17.7 7 Sur 16 Sur 0 931.2 -0.4 75
2018-09-18 02:00:00 18.1 8 Sudeste 12 Sudeste 0 931.6 -0.8 74
2018-09-18 01:00:00 18.4 4 Norte 13 Sudeste 0 932 0.2 73
2018-09-18 00:00:00 19.3 7 Sudeste 30 Sudoeste 0 931.6 -0.2 69
2018-09-17 23:00:00 19.5 8 Sudeste 23 Sur 0 932.4 1.9 73
2018-09-17 22:00:00 19.4 13 Nordeste 29 Nordeste 0.2 931.8 1.6 74
2018-09-17 21:00:00 21.3 10 Nordeste 26 Norte 0 931.8 1.8 60
2018-09-17 20:00:00 23.6 10 Este 26 Este 0 930.5 0 51
2018-09-17 19:00:00 27.5 11 Sudoeste 27 Sudoeste 0 930.2 -1 41
2018-09-17 18:00:00 29.4 13 Sur 31 Sur 0 930 -2.3 36
2018-09-17 17:00:00 28.6 5 Sudoeste 24 Sudoeste 0 930.5 -2.4 40
2018-09-17 16:00:00 29.4 12 Sudoeste 24 Sudoeste 0 931.2 -2.1 36
2018-09-17 15:00:00 27.8 12 Sudoeste 25 Sur 0 932.3 -1.3 41
2018-09-17 14:00:00 27.3 8 Sur 20 Sur 0 932.9 -0.6 45
2018-09-17 13:00:00 26.9 10 Sur 20 Sudeste 0 933.3 0.1 47
2018-09-17 12:00:00 27 10 Sur 21 Sur 0 933.6 0.1 44
2018-09-17 11:00:00 24.4 4 Noroeste 11 Norte 0 933.5 0.3 56
2018-09-17 10:00:00 22.5 3 Norte 9 Sur 0 933.2 0.2 66
2018-09-17 09:00:00 18.7 6 Sur 12 Sur 0 933.5 0.1 82
2018-09-17 08:00:00 17.7 5 Sur 11 Sudoeste 0 933.2 -0.2 81
2018-09-17 07:00:00 17.9 8 Sudoeste 14 Sudoeste 0 933 -0.4 79
2018-09-17 06:00:00 18.1 9 Sur 14 Sur 0 933.4 -0.4 76
2018-09-17 05:00:00 18.4 5 Sur 14 Sur 0 933.4 -0.4 71
2018-09-17 04:00:00 18.9 8 Sur 13 Sur 0 933.4 -0.6 65
2018-09-17 03:00:00 19.2 6 Sur 14 Sudeste 0 933.8 -0.5 61
2018-09-17 02:00:00 20.2 6 Nordeste 9 Oeste 0 933.8 -0.5 57
2018-09-17 01:00:00 21.4 6 Oeste 10 Oeste 0 934 -0.3 53
2018-09-17 00:00:00 21.2 7 Sudoeste 10 Sudoeste 0 934.3 0.5 53
2018-09-16 23:00:00 22 7 Sur 9 Sudoeste 0 934.3 0.6 51
2018-09-16 22:00:00 22.8 6 Sur 10 Sur 0 934.3 0.8 49
2018-09-16 21:00:00 25.1 5 Sur 9 Este 0 933.8 0.2 42
2018-09-16 20:00:00 27.4 4 Este 13 Este 0 933.7 -0.2 34
2018-09-16 19:00:00 28.6 4 Sudeste 13 Este 0 933.5 -0.9 32
2018-09-16 18:00:00 27.6 6 Este 22 Este 0 933.6 -1.5 32
2018-09-16 17:00:00 28.1 8 Este 19 Este 0 933.9 -1.7 33
2018-09-16 16:00:00 27 3 Este 19 Sudeste 0 934.4 -1.9 41
2018-09-16 15:00:00 26.9 7 Nordeste 22 Este 0 935.1 -1.7 42
2018-09-16 14:00:00 26.2 6 Sudeste 21 Nordeste 0 935.6 -0.9 46
2018-09-16 13:00:00 24.4 4 Este 13 Este 0 936.3 0.1 53
2018-09-16 12:00:00 23 4 Norte 16 Norte 0 936.8 0.9 59
2018-09-16 11:00:00 22.2 8 Norte 17 Norte 0 936.5 1.1 62
2018-09-16 10:00:00 20.7 5 Norte 10 Nordeste 0 936.2 1 70
2018-09-16 09:00:00 17.7 2 Este 8 Nordeste 0 935.9 0.7 88
2018-09-16 08:00:00 16.2 2 Noroeste 7 Sur 0 935.4 0.2 87
2018-09-16 07:00:00 17 5 Sur 9 Sur 0 935.2 -0.6 84
2018-09-16 06:00:00 17.4 5 Sudeste 10 Sur 0 935.2 -0.7 84
2018-09-16 05:00:00 17.1 7 Sur 11 Sur 0 935.2 -0.9 84
2018-09-16 04:00:00 17.3 6 Sudeste 11 Sur 0 935.8 -0.3 84
2018-09-16 03:00:00 17.5 5 Sur 11 Sudoeste 0 935.9 -0.1 81
2018-09-16 02:00:00 18.2 6 Sur 11 Sudoeste 0 936.1 0.4 79
2018-09-16 01:00:00 18.8 6 Sur 10 Sur 0 936.1 1.3 80
2018-09-16 00:00:00 19 6 Sur 15 Sur 0 936 1.7 80
2018-09-15 23:00:00 19.7 7 Sudeste 13 Sur 0 935.7 1.8 77
2018-09-15 22:00:00 20.2 5 Sur 9 Sur 0 934.8 1.4 72
2018-09-15 21:00:00 21.1 4 Sur 17 Sur 0 934.3 1.3 69
2018-09-15 20:00:00 22 12 Sur 25 Sur 0 933.9 1 60
2018-09-15 19:00:00 23.4 11 Sur 24 Sudeste 0 933.4 0.1 54
2018-09-15 18:00:00 24.5 9 Sudeste 31 Este 0 933 -0.7 45
2018-09-15 17:00:00 28.2 8 Este 23 Nordeste 0 932.9 -1.3 33
2018-09-15 16:00:00 26.1 6 Este 22 Este 0 933.3 -1.2 41
2018-09-15 15:00:00 26.3 9 Este 23 Nordeste 0 933.7 -0.8 43
2018-09-15 14:00:00 26.3 9 Este 24 Sudeste 0 934.2 0 42
2018-09-15 13:00:00 25.5 5 Nordeste 18 Este 0 934.5 0.6 48
2018-09-15 12:00:00 24.4 9 Este 19 Este 0 934.5 0.9 54
2018-09-15 11:00:00 22.5 9 Este 20 Sudeste 0 934.2 1.3 59
2018-09-15 10:00:00 20.5 8 Sudeste 17 Este 0 933.9 1 62
2018-09-15 09:00:00 17.1 3 Este 14 Este 0 933.6 0.7 75
2018-09-15 08:00:00 16.3 5 Este 11 Este 0 932.9 -0.1 80
2018-09-15 07:00:00 15.8 6 Este 9 Nordeste 0 932.9 -0.2 88
2018-09-15 06:00:00 15.9 6 Nordeste 11 Norte 0 932.9 -0.7 88
2018-09-15 05:00:00 16.3 6 Noroeste 12 Noroeste 0 933 -0.4 87
2018-09-15 04:00:00 16 3 Este 8 Sur 0 933.1 -0.4 84
2018-09-15 03:00:00 17.1 3 Este 15 Noroeste 0 933.6 -0.2 80
2018-09-15 02:00:00 17.8 8 Norte 14 Noroeste 0 933.4 -0.4 77
2018-09-15 01:00:00 18.4 7 Noroeste 13 Noroeste 0 933.5 0.8 74
2018-09-15 00:00:00 18.3 8 Norte 13 Norte 0 933.8 0.1 79
2018-09-14 23:00:00 18.7 6 Norte 21 Noroeste 0 933.8 -0.6 74
2018-09-14 22:00:00 18.8 10 Noroeste 19 Oeste 0 932.7 0.4 73
2018-09-14 21:00:00 18.8 6 Noroeste 19 Este 0.4 933.7 0.7 71
2018-09-14 20:00:00 19.3 8 Nordeste 33 Norte 0.2 934.4 2.2 65
2018-09-14 19:00:00 19.6 9 Sur 37 Sudeste 0.2 932.3 -0.6 63
2018-09-14 18:00:00 19.4 22 Este 62 Este 0 933 0 58
2018-09-14 17:00:00 23.4 8 Noroeste 58 Noroeste 0 932.2 -1.8 46
2018-09-14 16:00:00 25 9 Norte 28 Noroeste 1 932.9 -1.5 53
2018-09-14 15:00:00 29.7 7 Oeste 19 Sudeste 0 933 -1.3 33
2018-09-14 14:00:00 29.1 8 Sur 18 Sudeste 0 934 -0.1 37
2018-09-14 13:00:00 26.8 9 Sur 18 Sur 0 934.4 0.9 43
2018-09-14 12:00:00 23.4 6 Sudoeste 15 Sur 0 934.3 1 57
2018-09-14 11:00:00 22.4 6 Sur 17 Sur 0 934.1 1 61
2018-09-14 10:00:00 20 8 Sur 16 Sudeste 0 933.5 0.6 77
2018-09-14 09:00:00 18.6 6 Sudeste 11 Sur 0 933.3 0.4 84
2018-09-14 08:00:00 18.1 7 Sur 15 Sudeste 0 933.1 0 84
2018-09-14 07:00:00 17.9 7 Sur 15 Sur 0 932.9 -0.6 82
2018-09-14 06:00:00 18.3 9 Sur 17 Sudeste 0 932.9 -0.9 80
2018-09-14 05:00:00 18.7 9 Sur 17 Sudeste 0 933.1 -0.8 77
2018-09-14 04:00:00 19.4 9 Sur 18 Sur 0 933.5 -0.3 72
2018-09-14 03:00:00 19.8 10 Sur 19 Sudeste 0 933.8 0 70
2018-09-14 02:00:00 20.7 10 Sur 22 Sudeste 0 933.9 0.3 63
2018-09-14 01:00:00 22.4 9 Sur 13 Oeste 0 933.8 0.6 55
2018-09-14 00:00:00 23.3 8 Sudoeste 18 Sudoeste 0 933.8 0.9 50
2018-09-13 23:00:00 24.8 12 Sudoeste 28 Sudoeste 0 933.6 0.7 42
2018-09-13 22:00:00 25 8 Sudoeste 12 Sudoeste 0 933.2 0.2 37
2018-09-13 21:00:00 27.2 5 Sur 12 Oeste 0 932.9 -0.1 31
2018-09-13 20:00:00 30.1 5 Sur 18 Sudoeste 0 932.9 -0.5 26
2018-09-13 19:00:00 31 6 Sudoeste 18 Sudoeste 0 933 -1 25
2018-09-13 18:00:00 31.1 5 Noroeste 15 Nordeste 0 933 -1.7 22
2018-09-13 17:00:00 31.6 6 Este 19 Este 0 933.4 -1.8 21
2018-09-13 16:00:00 31.3 9 Sur 23 Sudeste 0 934 -1.7 26
2018-09-13 15:00:00 30.7 5 Este 27 Sudeste 0 934.7 -1.2 26
2018-09-13 14:00:00 31.3 11 Sur 22 Sur 0 935.2 -0.6 27
2018-09-13 13:00:00 29.4 5 Sudeste 17 Este 0 935.7 0.3 31
2018-09-13 12:00:00 27.8 3 Este 14 Sur 0 935.9 0.7 44
2018-09-13 11:00:00 25.6 5 Sur 11 Sudeste 0 935.8 0.9 55
2018-09-13 10:00:00 23.2 6 Sur 10 Sur 0 935.4 0.6 61
2018-09-13 09:00:00 20.2 4 Oeste 9 Noroeste 0 935.2 0.4 76
2018-09-13 08:00:00 18.7 2 Sudoeste 8 Sur 0 934.9 -0.1 78
2018-09-13 07:00:00 18.9 5 Sur 8 Sur 0 934.8 -0.6 71
2018-09-13 06:00:00 20.4 3 Oeste 9 Noroeste 0 934.8 -0.9 69
2018-09-13 05:00:00 20.8 4 Noroeste 9 Oeste 0 935 -1 65
2018-09-13 04:00:00 20.6 4 Sudoeste 8 Sudoeste 0 935.4 -1 60
2018-09-13 03:00:00 20.9 5 Sudoeste 10 Sudoeste 0 935.7 -0.9 59
2018-09-13 02:00:00 21.4 5 Sur 11 Sur 0 936 -0.5 57
2018-09-13 01:00:00 21.8 5 Este 9 Sudoeste 0 936.4 -0.2 56
2018-09-13 00:00:00 23.1 5 Sudeste 13 Oeste 0 936.6 1.3 49
2018-09-12 23:00:00 23.6 7 Oeste 17 Noroeste 0 936.5 1.4 47
2018-09-12 22:00:00 24.2 12 Noroeste 28 Noroeste 0 936.6 1.3 52
2018-09-12 21:00:00 26.2 11 Sudoeste 29 Sudoeste 0 935.3 0 43
2018-09-12 20:00:00 28.6 18 Sudoeste 31 Sudoeste 0 935.1 -0.5 36
2018-09-12 19:00:00 29.5 8 Sudeste 21 Sur 0 935.3 -0.8 30
2018-09-12 18:00:00 30.8 4 Sudoeste 13 Oeste 0 935.3 -1.6 27
2018-09-12 17:00:00 30.4 5 Sudoeste 17 Sudoeste 0 935.6 -1.9 27
2018-09-12 16:00:00 31.4 8 Sur 17 Sur 0 936.1 -2.1 28
2018-09-12 15:00:00 28.7 6 Este 18 Nordeste 0 936.9 -1.4 33
2018-09-12 14:00:00 27.9 4 Este 13 Norte 0 937.5 -0.7 42
2018-09-12 13:00:00 27.3 7 Sur 15 Este 0 938.2 0.6 46
2018-09-12 12:00:00 26.3 6 Sudoeste 15 Sur 0 938.3 1.1 54
2018-09-12 11:00:00 24.6 4 Sudoeste 11 Sudoeste 0 938.2 1.4 62
2018-09-12 10:00:00 22.4 3 Sudoeste 8 Sur 0 937.6 1.2 74
2018-09-12 09:00:00 19 3 Este 5 Este 0 937.2 0.8 87
2018-09-12 08:00:00 17.7 2 Nordeste 13 Sudoeste 0 936.8 0.4 88
2018-09-12 07:00:00 18.8 8 Sur 13 Sudoeste 0 936.4 0.2 84
2018-09-12 06:00:00 18.7 6 Sur 10 Sudoeste 0 936.4 0 83
2018-09-12 05:00:00 19.3 5 Sudeste 14 Sur 0 936.4 0.1 80
2018-09-12 04:00:00 19.2 8 Sur 13 Sur 0 936.2 -0.3 78
2018-09-12 03:00:00 19.7 6 Sur 17 Sudoeste 0 936.4 0.1 74
2018-09-12 02:00:00 20.1 8 Sur 13 Sur 0 936.3 0.6 72
2018-09-12 01:00:00 20.6 7 Sur 18 Sur 0 936.5 1.3 65
2018-09-12 00:00:00 22.1 8 Sudeste 14 Sudeste 0 936.3 1.5 53
2018-09-11 23:00:00 22.4 5 Sur 9 Sudeste 0 935.7 1.2 51
2018-09-11 22:00:00 23.3 6 Sudeste 8 Sudeste 0 935.2 0.7 48
2018-09-11 21:00:00 25.3 2 Sur 9 Sur 0 934.8 0.2 43
2018-09-11 20:00:00 27.6 6 Sur 18 Sudeste 0 934.5 -0.4 36
2018-09-11 19:00:00 28.6 5 Sur 19 Sudeste 0 934.5 -0.8 32
2018-09-11 18:00:00 27.6 8 Sudeste 24 Sudoeste 0 934.6 -1.3 36
2018-09-11 17:00:00 29.4 11 Sur 27 Sudeste 0 934.9 -1.6 32
2018-09-11 16:00:00 27.6 4 Este 21 Este 0 935.3 -1.5 35
2018-09-11 15:00:00 27.1 4 Nordeste 21 Nordeste 0 935.9 -1 36
2018-09-11 14:00:00 27.5 7 Nordeste 18 Nordeste 0 936.5 -0.5 36
2018-09-11 13:00:00 26.3 8 Este 18 Nordeste 0 936.8 0 40
2018-09-11 12:00:00 25.2 8 Nordeste 18 Nordeste 0 936.9 0.5 46
2018-09-11 11:00:00 23.6 8 Este 20 Este 0 937 1 55
2018-09-11 10:00:00 21.7 9 Este 23 Este 0 936.8 0.9 62
2018-09-11 09:00:00 19 10 Este 19 Este 0 936.4 0.5 74
2018-09-11 08:00:00 18 9 Este 20 Este 0 936 0 77
2018-09-11 07:00:00 17.2 8 Este 15 Este 0 935.9 -0.1 81
2018-09-11 06:00:00 17.5 5 Nordeste 13 Sudeste 0 935.9 -0.1 78
2018-09-11 05:00:00 18.5 6 Este 20 Sudeste 0 936 0 73
2018-09-11 04:00:00 19.2 10 Sudeste 19 Sudeste 0 936 -0.2 69
2018-09-11 03:00:00 19.7 8 Este 26 Este 0 936 -0.1 65
2018-09-11 02:00:00 20.3 11 Este 24 Este 0 936 -0.2 62
2018-09-11 01:00:00 18.9 9 Este 14 Este 0 936.2 0.5 68
2018-09-11 00:00:00 19.2 8 Nordeste 13 Nordeste 0 936.1 0.9 66
2018-09-10 23:00:00 19.6 8 Nordeste 13 Nordeste 0 936.2 1.1 60
2018-09-10 22:00:00 20.8 8 Nordeste 13 Nordeste 0 935.7 0.7 56
2018-09-10 21:00:00 22.7 6 Nordeste 23 Nordeste 0 935.2 0.2 50
2018-09-10 20:00:00 24.9 11 Nordeste 24 Nordeste 0 935.1 -0.2 38
2018-09-10 19:00:00 26.3 10 Nordeste 30 Nordeste 0 935 -0.7 34
2018-09-10 18:00:00 26.1 12 Nordeste 36 Norte 0 935 -1.2 36
2018-09-10 17:00:00 26.4 13 Nordeste 31 Nordeste 0 935.3 -1.3 37
2018-09-10 16:00:00 25.5 10 Este 37 Este 0 935.7 -1.3 41
2018-09-10 15:00:00 25 14 Nordeste 34 Nordeste 0 936.2 -0.9 41
2018-09-10 14:00:00 24.5 23 Este 42 Este 0 936.6 -0.2 40
2018-09-10 13:00:00 24.2 15 Nordeste 30 Nordeste 0 937 0.6 44
2018-09-10 12:00:00 23.1 12 Este 22 Nordeste 0 937.1 1 47
2018-09-10 11:00:00 21.2 8 Nordeste 18 Norte 0 936.8 1.1 54
2018-09-10 10:00:00 19.2 7 Norte 15 Norte 0 936.4 0.5 61
2018-09-10 09:00:00 15.7 6 Norte 14 Norte 0 936.1 0.4 76
2018-09-10 08:00:00 13.8 5 Norte 10 Nordeste 0 935.7 0.1 80
2018-09-10 07:00:00 14 6 Nordeste 9 Norte 0 935.9 0.1 78
2018-09-10 06:00:00 14.3 6 Nordeste 11 Sur 0 935.7 -0.5 77
2018-09-10 05:00:00 15.7 6 Sur 12 Sur 0 935.6 -0.3 72
2018-09-10 04:00:00 16.3 6 Sur 15 Sudeste 0 935.8 0.1 70
2018-09-10 03:00:00 16.9 8 Sur 24 Este 0 936.2 1.3 65
2018-09-10 02:00:00 17.1 5 Sur 12 Oeste 0 935.9 0.7 63
2018-09-10 01:00:00 16.8 4 Sudoeste 13 Sudoeste 0 935.7 0.3 66
2018-09-10 00:00:00 16.7 4 Sudeste 20 Norte 0 934.9 0.1 65
2018-09-09 23:00:00 16.1 12 Nordeste 25 Norte 0 935.2 1.3 69
2018-09-09 22:00:00 16.2 12 Norte 36 Norte 0 935.4 0.6 67
2018-09-09 21:00:00 16.5 17 Norte 41 Norte 0 934.8 1.9 66
2018-09-09 20:00:00 14.9 9 Nordeste 41 Noroeste 4 933.9 1.6 78
2018-09-09 19:00:00 16.2 23 Oeste 44 Oeste 8 934.8 1.6 78
2018-09-09 18:00:00 21 15 Oeste 26 Oeste 0.4 932.9 -1 64
2018-09-09 17:00:00 24.8 7 Nordeste 15 Nordeste 0 932.3 -2.1 46
2018-09-09 16:00:00 24.4 7 Norte 16 Norte 0 933.2 -1.6 49
2018-09-09 15:00:00 23 8 Norte 17 Norte 0 933.9 -1.1 61
2018-09-09 14:00:00 21.3 3 Norte 15 Nordeste 5.2 934.4 -0.4 75
2018-09-09 13:00:00 22.6 4 Este 19 Norte 0 934.8 0.2 54
2018-09-09 12:00:00 21.9 5 Norte 17 Nordeste 0 935 0.8 59
2018-09-09 11:00:00 21.5 5 Nordeste 14 Norte 0 934.8 1.1 64
2018-09-09 10:00:00 20.8 4 Nordeste 9 Nordeste 0 934.6 1.1 65
2018-09-09 09:00:00 16.8 3 Nordeste 8 Nordeste 0 934.2 0.4 83
2018-09-09 08:00:00 14.6 5 Nordeste 8 Nordeste 0 933.7 -0.3 88
2018-09-09 07:00:00 15 4 Norte 8 Nordeste 0 933.5 -0.5 87
2018-09-09 06:00:00 15.6 5 Norte 9 Nordeste 0 933.8 -0.3 88
2018-09-09 05:00:00 15.5 5 Nordeste 9 Nordeste 0.2 934 0 89
2018-09-09 04:00:00 16.4 0 Calma 8 Sudeste 0.6 934 0.3 86
2018-09-09 03:00:00 15.9 4 Este 9 Este 0 934.1 0.8 81
2018-09-09 02:00:00 16.5 3 Sudeste 11 Este 0 934 0.5 78
2018-09-09 01:00:00 16 6 Este 12 Este 0 933.7 0.3 83
2018-09-09 00:00:00 16 6 Este 13 Este 0 933.3 0.4 83
2018-09-08 23:00:00 15.4 8 Este 12 Este 0 933.5 1 86
2018-09-08 22:00:00 16.3 4 Este 24 Sur 0 933.4 0.9 81
2018-09-08 21:00:00 17.6 9 Sur 24 Sudeste 0 932.9 0.2 75
2018-09-08 20:00:00 19 10 Sur 23 Sur 0 932.5 0 70
2018-09-08 19:00:00 20.1 12 Sur 27 Sudeste 0 932.5 0.1 64
2018-09-08 18:00:00 20.1 11 Sudeste 26 Sudeste 0 932.7 -0.1 63
2018-09-08 17:00:00 20.2 10 Sur 21 Sudeste 0 932.5 0.1 70
2018-09-08 16:00:00 19.7 8 Sudeste 24 Sudeste 0 932.4 0.1 73
2018-09-08 15:00:00 19.8 10 Sudeste 23 Sudeste 0 932.8 0.8 65
2018-09-08 14:00:00 19.7 9 Sur 19 Sudoeste 0.2 932.4 0.7 65
2018-09-08 13:00:00 22 11 Sur 22 Sudeste 0 932.3 1.3 50
2018-09-08 12:00:00 22.6 10 Sur 22 Sur 0 932 0.9 45
2018-09-08 11:00:00 22.8 4 Sur 14 Sur 0 931.7 0.9 45
2018-09-08 10:00:00 21.3 4 Sur 11 Sur 0 931 0.7 54
2018-09-08 09:00:00 16.7 6 Sur 18 Sudeste 0 931.1 1.4 69
2018-09-08 08:00:00 17.7 6 Sur 16 Sur 0 930.8 0.3 65
2018-09-08 07:00:00 18.4 2 Norte 13 Oeste 0 930.3 0 62
2018-09-08 06:00:00 18.4 5 Sudoeste 14 Sudoeste 0 929.7 -0.3 61
2018-09-08 05:00:00 19.5 7 Sur 15 Sur 0 930.5 0.1 58
2018-09-08 04:00:00 19.5 6 Sur 10 Sudoeste 0 930.3 -0.1 57
2018-09-08 03:00:00 19.5 5 Sur 13 Sur 0 930 -0.3 54
2018-09-08 02:00:00 20.7 4 Sudeste 13 Sur 0 930.4 0.6 50
2018-09-08 01:00:00 20.6 2 Sur 6 Este 0 930.4 0.9 51
2018-09-08 00:00:00 21.3 2 Este 8 Norte 0 930.3 1.3 48
2018-09-07 23:00:00 21.6 5 Norte 10 Noroeste 0 929.8 1.1 45
2018-09-07 22:00:00 22.9 4 Noroeste 9 Oeste 0 929.5 0.9 40
2018-09-07 21:00:00 24 6 Oeste 12 Sudoeste 0 929 0.3 36
2018-09-07 20:00:00 26 3 Sur 22 Sudoeste 0 928.7 -0.2 29
2018-09-07 19:00:00 28.3 13 Sudoeste 30 Sudoeste 0 928.6 -0.5 25
2018-09-07 18:00:00 28.2 13 Sudoeste 34 Sudoeste 0 928.7 -0.7 24
2018-09-07 17:00:00 28.7 15 Sur 38 Sudoeste 0 928.9 -0.6 19
2018-09-07 16:00:00 28.6 15 Sur 37 Sudoeste 0 929.1 -1 15
2018-09-07 15:00:00 28.1 13 Sur 32 Sur 0 929.4 -0.7 19
2018-09-07 14:00:00 26.7 12 Sudeste 32 Sur 0 929.5 -0.4 30
2018-09-07 13:00:00 26.3 17 Sur 35 Sur 0 930.1 0.5 32
2018-09-07 12:00:00 25.1 10 Sudeste 22 Sur 0 930.1 0.5 44
2018-09-07 11:00:00 23.2 9 Sudeste 17 Sudeste 0 929.9 0.5 52
2018-09-07 10:00:00 20.2 6 Sudeste 14 Sudeste 0 929.6 0.4 63
2018-09-07 09:00:00 15.7 7 Sur 14 Sur 0 929.6 0.4 82
2018-09-07 08:00:00 16 7 Sur 12 Sudeste 0 929.4 0.2 78
2018-09-07 07:00:00 15.6 8 Sudeste 12 Sudeste 0 929.2 -0.3 78
2018-09-07 06:00:00 15.4 6 Sur 9 Sur 0 929.2 -0.6 70
2018-09-07 05:00:00 16.8 7 Sur 12 Sudeste 0 929.2 -0.8 62
2018-09-07 04:00:00 17.6 6 Sudeste 10 Sur 0 929.5 -0.5 61
2018-09-07 03:00:00 17.6 6 Sur 10 Sur 0 929.8 -0.5 60
2018-09-07 02:00:00 18.7 6 Sudoeste 12 Sudoeste 0 930 -0.4 56
2018-09-07 01:00:00 19 7 Oeste 12 Sur 0 930 -0.1 55
2018-09-07 00:00:00 19.6 7 Sur 12 Sur 0 930.3 0.9 53
2018-09-06 23:00:00 21.1 7 Sudoeste 16 Sudoeste 0 930.4 1.4 49
2018-09-06 22:00:00 22.4 8 Sudoeste 13 Sur 0 930.1 1.2 45
2018-09-06 21:00:00 24.2 5 Sudeste 15 Oeste 0 929.4 0.4 35
2018-09-06 20:00:00 26.3 10 Oeste 20 Norte 0 929 -0.2 27
2018-09-06 19:00:00 27.2 8 Norte 19 Noroeste 0 928.9 -0.8 26
2018-09-06 18:00:00 27.4 14 Oeste 24 Oeste 0 929 -1.1 27
2018-09-06 17:00:00 28.4 10 Oeste 21 Oeste 0 929.2 -1.3 26
2018-09-06 16:00:00 25.7 11 Oeste 22 Oeste 0 929.7 -1.2 31
2018-09-06 15:00:00 26.1 6 Norte 21 Oeste 0 930.1 -1.1 31
2018-09-06 14:00:00 25.8 9 Oeste 19 Oeste 0 930.5 -0.5 33
2018-09-06 13:00:00 24.9 6 Sudoeste 22 Oeste 0 930.9 0 37
2018-09-06 12:00:00 23.5 5 Sudoeste 17 Norte 0 931.2 0.6 43
2018-09-06 11:00:00 21.5 3 Oeste 10 Norte 0 931 0.8 55
2018-09-06 10:00:00 18.1 6 Noroeste 11 Noroeste 0 930.9 1 66
2018-09-06 09:00:00 16.2 5 Norte 12 Noroeste 0 930.6 0.6 73
2018-09-06 08:00:00 15.5 4 Oeste 9 Oeste 0 930.2 0 73
2018-09-06 07:00:00 15.7 5 Oeste 7 Noroeste 0 929.9 -0.5 71
2018-09-06 06:00:00 15.9 5 Noroeste 10 Noroeste 0 930 -0.7 68
2018-09-06 05:00:00 16.1 4 Noroeste 10 Noroeste 0 930.2 -0.6 67
2018-09-06 04:00:00 16.6 6 Oeste 10 Oeste 0 930.4 -0.4 68
2018-09-06 03:00:00 17.2 4 Sudoeste 14 Sudoeste 0 930.7 -0.2 68
2018-09-06 02:00:00 17.7 6 Sur 14 Oeste 0 930.8 0 66
2018-09-06 01:00:00 18.4 7 Sudoeste 17 Sudoeste 0 930.8 0.4 64
2018-09-06 00:00:00 19 8 Sudoeste 18 Sudoeste 0 930.9 1.1 60
2018-09-05 23:00:00 19.2 7 Sur 15 Sudoeste 0 930.8 1.2 53
2018-09-05 22:00:00 20.9 9 Sudoeste 18 Sudoeste 0 930.4 0.7 45
2018-09-05 21:00:00 22.3 10 Sudoeste 27 Oeste 0 929.8 -0.1 41
2018-09-05 20:00:00 24.3 13 Sudoeste 32 Sudoeste 0 929.6 -0.6 36
2018-09-05 19:00:00 26.1 14 Sudoeste 32 Sudoeste 0 929.7 -0.9 32
2018-09-05 18:00:00 26.9 10 Sudoeste 35 Sudoeste 0 929.9 -1.4 31
2018-09-05 17:00:00 26.5 5 Sudoeste 29 Sur 0 930.2 -1.6 32
2018-09-05 16:00:00 25.4 8 Oeste 30 Sudoeste 0 930.6 -1.6 36
2018-09-05 15:00:00 24.6 9 Sudoeste 27 Sudoeste 0 931.3 -1 41
2018-09-05 14:00:00 24.9 10 Sudoeste 21 Sudoeste 0 931.8 -0.4 44
2018-09-05 13:00:00 22.2 8 Sudoeste 17 Sudoeste 0 932.2 0.4 51
2018-09-05 12:00:00 21 7 Sur 20 Sudoeste 0 932.3 0.8 59
2018-09-05 11:00:00 17.7 10 Sudoeste 19 Sur 0 932.2 1.3 76
2018-09-05 10:00:00 15.4 9 Sur 17 Sudoeste 0 931.8 1.2 88
2018-09-05 09:00:00 14.5 8 Sur 15 Sudeste 0 931.5 1.2 89
2018-09-05 08:00:00 14 6 Sur 17 Sur 0 930.9 0.7 88
2018-09-05 07:00:00 14.2 9 Sur 15 Sur 0 930.6 0.5 87
2018-09-05 06:00:00 14.6 8 Sur 17 Sur 0 930.3 0 83
2018-09-05 05:00:00 15 9 Sur 15 Sur 0 930.2 -0.4 80
2018-09-05 04:00:00 15.5 9 Sur 17 Sur 0 930.1 -0.1 76
2018-09-05 03:00:00 15.9 7 Sur 10 Sur 0 930.3 0.3 71
2018-09-05 02:00:00 16.4 5 Oeste 14 Sudoeste 0 930.6 0.8 68
2018-09-05 01:00:00 17.9 9 Sudoeste 16 Sudoeste 0 930.2 1.1 63
2018-09-05 00:00:00 17.8 4 Sur 10 Sur 0 930 1.5 59
2018-09-04 23:00:00 19 2 Sur 18 Sudoeste 0 929.8 1.6 51
2018-09-04 22:00:00 20.6 10 Sudoeste 18 Sudoeste 0 929.1 1 45
2018-09-04 21:00:00 22.9 10 Sudoeste 33 Sudoeste 0 928.5 0.4 36
2018-09-04 20:00:00 25.6 16 Sudoeste 34 Sudoeste 0 928.2 -0.1 29
2018-09-04 19:00:00 27.2 13 Sudoeste 31 Sudoeste 0 928.1 -0.6 27
2018-09-04 18:00:00 27.9 15 Sudoeste 27 Sudoeste 0 928.1 -0.8 26
2018-09-04 17:00:00 28.2 11 Sur 28 Sudoeste 0 928.3 -1 29
2018-09-04 16:00:00 27.7 14 Sudoeste 31 Sur 0 928.7 -0.8 28
2018-09-04 15:00:00 26.5 12 Sudoeste 29 Sudoeste 0 928.9 -0.9 34
2018-09-04 14:00:00 25.6 10 Sur 23 Sudeste 0 929.3 -0.7 39
2018-09-04 13:00:00 23.3 7 Sur 19 Sudeste 0 929.5 -0.2 49
2018-09-04 12:00:00 20.7 8 Sudeste 20 Sur 0 929.8 0.5 61
2018-09-04 11:00:00 17.4 9 Sur 18 Sur 0 930 1 76
2018-09-04 10:00:00 15.9 7 Sudeste 21 Sur 0 929.7 0.8 85
2018-09-04 09:00:00 14.9 10 Sur 21 Sur 0 929.3 0.7 91
2018-09-04 08:00:00 14.4 9 Sur 18 Sur 0 929 0.3 92
2018-09-04 07:00:00 14.3 8 Sur 23 Sur 0 928.9 0.1 92
2018-09-04 06:00:00 14.4 12 Sur 22 Sur 0 928.6 -0.4 91
2018-09-04 05:00:00 14.3 9 Sur 18 Sur 0 928.7 -0.6 89
2018-09-04 04:00:00 14.9 9 Sur 17 Sudeste 0 928.8 -0.3 86
2018-09-04 03:00:00 15.2 9 Sur 18 Sudeste 0 929 0 82
2018-09-04 02:00:00 16.2 9 Sur 23 Sur 0 929.3 0.4 75
2018-09-04 01:00:00 17.9 14 Sur 23 Sur 0 929.1 0.5 69
2018-09-04 00:00:00 18.8 10 Sur 17 Sur 0 929 1.3 63
2018-09-03 23:00:00 20.3 8 Sur 17 Sur 0 928.9 1.6 47
2018-09-03 22:00:00 22.3 8 Sudoeste 17 Sudoeste 0 928.6 1.2 35
2018-09-03 21:00:00 24.6 11 Sudoeste 26 Sudoeste 0 927.7 0.3 29
2018-09-03 20:00:00 26.9 18 Sudoeste 35 Sudoeste 0 927.3 -0.4 22
2018-09-03 19:00:00 29 15 Sudoeste 33 Sudoeste 0 927.4 -0.6 20
2018-09-03 18:00:00 30.2 14 Sudoeste 36 Sudoeste 0 927.4 -1.1 22
2018-09-03 17:00:00 30.6 13 Sur 40 Sur 0 927.7 -0.9 24
2018-09-03 16:00:00 30.9 15 Sudoeste 40 Sudoeste 0 928 -1 22
2018-09-03 15:00:00 29.9 17 Sur 32 Sur 0 928.5 -1 26
2018-09-03 14:00:00 28.8 8 Sur 31 Sur 0 928.6 -1.3 39
2018-09-03 13:00:00 26.2 14 Sudeste 32 Sudeste 0 929 -1.2 48
2018-09-03 12:00:00 24.3 13 Sur 27 Sudeste 0 929.5 -0.4 59
2018-09-03 11:00:00 22.1 7 Sur 15 Sudeste 0 929.9 0.3 71
2018-09-03 10:00:00 19.9 7 Sur 12 Sudeste 0 930.2 0.8 81
2018-09-03 09:00:00 18.9 8 Sur 18 Sur 0 929.9 0.2 85
2018-09-03 08:00:00 18.5 9 Sur 18 Sur 0 929.6 0.1 83
2018-09-03 07:00:00 19.2 10 Sudoeste 21 Sudoeste 0 929.4 0 79
2018-09-03 06:00:00 20.1 6 Sur 22 Oeste 0 929.7 0.1 69
2018-09-03 05:00:00 21.8 13 Sudoeste 22 Sudoeste 0 929.5 0 58
2018-09-03 04:00:00 22 8 Sudoeste 13 Sudoeste 0 929.4 -0.2 58
2018-09-03 03:00:00 22.7 0 Calma 13 Sur 0 929.6 0.2 56
2018-09-03 02:00:00 24.8 9 Sur 19 Sur 0 929.5 -0.1 49
2018-09-03 01:00:00 25.6 10 Sur 21 Sur 0 929.6 0.3 45
2018-09-03 00:00:00 26.2 9 Sur 16 Sur 0 929.4 0.4 37
2018-09-02 23:00:00 27.4 11 Sur 21 Sur 0 929.6 0.5 30
2018-09-02 22:00:00 28.5 8 Sur 14 Sur 0 929.3 -0.1 27
2018-09-02 21:00:00 30.7 6 Sur 17 Sudoeste 0 929 -0.7 22
2018-09-02 20:00:00 33.4 10 Sur 27 Sudoeste 0 929.1 -1.1 18
2018-09-02 19:00:00 34.8 12 Sur 33 Sur 0 929.4 -1.3 14
2018-09-02 18:00:00 36.3 11 Sur 29 Sudoeste 0 929.7 -1.5 14
2018-09-02 17:00:00 35.9 8 Sur 25 Sur 0 930.2 -1.6 14
2018-09-02 16:00:00 36.2 9 Sur 24 Sudeste 0 930.7 -1.7 15
2018-09-02 15:00:00 35.4 7 Sur 27 Sur 0 931.2 -1.6 16
2018-09-02 14:00:00 34.2 8 Sur 25 Sudeste 0 931.8 -0.9 18
2018-09-02 13:00:00 32.6 9 Sur 27 Sur 0 932.4 0 20
2018-09-02 12:00:00 30.8 9 Sur 22 Sudoeste 0 932.8 0.6 23
2018-09-02 11:00:00 29.1 10 Sur 18 Sur 0 932.7 0.8 27
2018-09-02 10:00:00 26.8 3 Sudeste 8 Sudeste 0 932.4 0.9 36
2018-09-02 09:00:00 22.4 3 Sur 6 Sudoeste 0 932.2 0.7 47
2018-09-02 08:00:00 21.3 3 Este 8 Este 0 931.9 0.5 47
2018-09-02 07:00:00 21 4 Nordeste 9 Nordeste 0 931.5 0 47
2018-09-02 06:00:00 20.8 7 Nordeste 12 Este 0 931.5 -0.3 48
2018-09-02 05:00:00 22.4 7 Sur 21 Sur 0 931.4 -0.6 42
2018-09-02 04:00:00 23.1 9 Sur 16 Sur 0 931.5 -0.4 39
2018-09-02 03:00:00 23.6 11 Sur 19 Sur 0 931.8 0 39
2018-09-02 02:00:00 24.1 12 Sur 18 Sur 0 932 0.2 38
2018-09-02 01:00:00 24.7 10 Sur 17 Sur 0 931.9 0.5 35
2018-09-02 00:00:00 24.7 9 Sur 15 Sur 0 931.8 0.8 35
2018-09-01 23:00:00 26.1 8 Sur 17 Sudoeste 0 931.8 1.2 31
2018-09-01 22:00:00 27.3 9 Sur 18 Sudoeste 0 931.4 0.6 29
2018-09-01 21:00:00 30.1 8 Sudoeste 23 Sudoeste 0 931 0.1 25
2018-09-01 20:00:00 33.1 14 Sudoeste 27 Sudoeste 0 930.6 -0.6 20
2018-09-01 19:00:00 34.9 11 Sudoeste 25 Sudeste 0 930.8 -0.8 16
2018-09-01 18:00:00 35.1 11 Sudeste 28 Sudeste 0 930.9 -1.1 15
2018-09-01 17:00:00 35.7 12 Sur 33 Sur 0 931.2 -1.3 14
2018-09-01 16:00:00 36.1 11 Sudoeste 30 Sur 0 931.6 -1.4 15
2018-09-01 15:00:00 34.9 10 Sudoeste 28 Sudoeste 0 932 -1.4 15
2018-09-01 14:00:00 34.4 10 Sur 23 Sur 0 932.5 -0.7 22
2018-09-01 13:00:00 33.2 9 Sudeste 21 Sudeste 0 933 0.2 24
2018-09-01 12:00:00 31.6 6 Sudeste 18 Sudeste 0 933.4 0.9 27
2018-09-01 11:00:00 30.1 6 Sur 13 Sudeste 0 933.2 1 30
2018-09-01 10:00:00 27.6 3 Sur 8 Sudeste 0 932.8 1 34
2018-09-01 09:00:00 23.7 2 Sur 6 Sur 0 932.5 0.7 44
2018-09-01 08:00:00 21.5 4 Sur 9 Sur 0 932.2 0.2 48
2018-09-01 07:00:00 21.7 6 Sur 10 Sur 0 931.8 -0.3 45
2018-09-01 06:00:00 21.7 7 Sur 10 Sur 0 931.8 -0.3 44
2018-09-01 05:00:00 21.7 7 Sur 12 Sur 0 932 -0.1 44
2018-09-01 04:00:00 22.4 5 Sudeste 12 Sur 0 932.1 -0.1 41
2018-09-01 03:00:00 23.7 9 Sur 14 Sur 0 932.1 0.1 38
2018-09-01 02:00:00 25.1 8 Sudoeste 13 Sudoeste 0 932.1 0 33
2018-09-01 01:00:00 25.8 8 Oeste 17 Sudoeste 0 932.2 0.5 31
2018-09-01 00:00:00 26.1 8 Sudoeste 15 Sudoeste 0 932 0.9 30
2018-08-31 23:00:00 26.4 7 Sudoeste 10 Sudoeste 0 932.1 1.2 30
2018-08-31 22:00:00 27.9 7 Sudoeste 10 Sur 0 931.7 0.9 28
2018-08-31 21:00:00 30.5 5 Sur 17 Sudeste 0 931.1 0 24
2018-08-31 20:00:00 32.6 6 Sudeste 12 Nordeste 0 930.9 -0.5 21
2018-08-31 19:00:00 34 6 Sudoeste 16 Este 0 930.8 -1.2 19
2018-08-31 18:00:00 33.3 6 Sur 17 Sur 0 931.1 -1.2 20
2018-08-31 17:00:00 33.6 5 Este 28 Sur 0 931.4 -1.4 20
2018-08-31 16:00:00 34.9 12 Sudeste 24 Sudeste 0 932 -1.2 19
2018-08-31 15:00:00 33.4 7 Nordeste 21 Nordeste 0 932.3 -1.2 20
2018-08-31 14:00:00 32.3 8 Nordeste 19 Nordeste 0 932.8 -0.7 24
2018-08-31 13:00:00 31.8 6 Este 17 Nordeste 0 933.2 -0.1 25
2018-08-31 12:00:00 30.4 4 Noroeste 10 Norte 0 933.5 0.4 28
2018-08-31 11:00:00 27.7 3 Oeste 12 Sudoeste 0 933.5 0.9 33
2018-08-31 10:00:00 25.5 4 Sudoeste 8 Sudoeste 0 933.3 0.8 48
2018-08-31 09:00:00 20.7 3 Sur 12 Sur 0 933.1 0.8 64
2018-08-31 08:00:00 19.8 7 Sur 14 Sur 0 932.6 0.1 66
2018-08-31 07:00:00 20.1 8 Sur 17 Sur 0 932.5 -0.1 64
2018-08-31 06:00:00 20.5 10 Sur 18 Sur 0 932.3 -0.7 62
2018-08-31 05:00:00 21 10 Sur 20 Sur 0 932.5 -0.5 56
2018-08-31 04:00:00 21.9 10 Sur 18 Sur 0 932.6 -0.4 45
2018-08-31 03:00:00 22.5 8 Sur 14 Sur 0 933 -0.1 40
2018-08-31 02:00:00 23.3 7 Sudoeste 13 Sur 0 933 0.1 37
2018-08-31 01:00:00 22.7 9 Sudoeste 24 Noroeste 0 933 0.5 37
2018-08-31 00:00:00 23.7 7 Oeste 11 Oeste 0 933.1 0.9 33
2018-08-30 23:00:00 24.4 7 Sudoeste 12 Sur 0 932.9 0.8 32
2018-08-30 22:00:00 25.9 8 Sur 11 Sudoeste 0 932.5 0.3 28
2018-08-30 21:00:00 28.8 5 Sur 10 Sur 0 932.2 -0.2 21
2018-08-30 20:00:00 31.1 3 Este 18 Sudeste 0 932.1 -0.5 18
2018-08-30 19:00:00 32.5 7 Sur 22 Sudoeste 0 932.2 -1 17
2018-08-30 18:00:00 32.5 11 Oeste 29 Sudoeste 0 932.4 -0.8 17
2018-08-30 17:00:00 33.2 13 Sudoeste 25 Sur 0 932.6 -0.9 18
2018-08-30 16:00:00 33.2 13 Sudoeste 32 Sudoeste 0 933.2 -0.6 20
2018-08-30 15:00:00 32.3 9 Sudoeste 22 Sur 0 933.2 -0.9 23
2018-08-30 14:00:00 31 7 Sur 24 Sur 0 933.5 -0.5 26
2018-08-30 13:00:00 30.3 12 Sur 26 Sudoeste 0 933.8 0.1 27
2018-08-30 12:00:00 28.7 10 Sudeste 21 Sudeste 0 934.1 1.2 29
2018-08-30 11:00:00 26.8 7 Sudeste 19 Sur 0 934 1.5 27
2018-08-30 10:00:00 22.8 10 Sudeste 18 Sudeste 0 933.7 1.3 44
2018-08-30 09:00:00 20.6 2 Norte 6 Nordeste 0 932.9 0.6 41
2018-08-30 08:00:00 18.4 4 Nordeste 8 Norte 0 932.5 0 46
2018-08-30 07:00:00 19.5 6 Norte 13 Norte 0 932.4 -0.3 41
2018-08-30 06:00:00 20.5 7 Norte 13 Norte 0 932.3 -0.7 40
2018-08-30 05:00:00 21.1 7 Norte 15 Norte 0 932.5 -0.5 38
2018-08-30 04:00:00 21.5 10 Noroeste 17 Noroeste 0 932.7 -0.1 35
2018-08-30 03:00:00 21.7 9 Noroeste 16 Norte 0 933 -0.1 32
2018-08-30 02:00:00 22.3 8 Noroeste 15 Norte 0 933 0 30
2018-08-30 01:00:00 22.9 9 Noroeste 14 Noroeste 0 932.8 0.3 26
2018-08-30 00:00:00 23.5 8 Noroeste 16 Norte 0 933.1 1.1 24
2018-08-29 23:00:00 24 8 Noroeste 17 Noroeste 0 933 1.5 23
2018-08-29 22:00:00 24.8 8 Norte 18 Norte 0 932.5 1.1 24
2018-08-29 21:00:00 26.9 9 Norte 24 Norte 0 932 0.6 24
2018-08-29 20:00:00 29.1 12 Noroeste 25 Noroeste 0 931.5 -0.1 22
2018-08-29 19:00:00 30.4 3 Este 19 Norte 0 931.4 -0.8 23
2018-08-29 18:00:00 29.8 6 Oeste 21 Noroeste 0 931.4 -1.2 24
2018-08-29 17:00:00 32.7 8 Sudoeste 19 Oeste 0 931.6 -1.3 21
2018-08-29 16:00:00 31.3 5 Sudeste 17 Noroeste 0 932.2 -1 23
2018-08-29 15:00:00 29.9 6 Noroeste 22 Oeste 0 932.6 -0.9 25
2018-08-29 14:00:00 29.8 10 Sudoeste 25 Sudoeste 0 932.9 -0.4 26
2018-08-29 13:00:00 27.6 6 Norte 16 Noroeste 0 933.2 0.1 32
2018-08-29 12:00:00 26.6 5 Norte 14 Norte 0 933.5 0.6 31
2018-08-29 11:00:00 23.8 3 Norte 16 Noroeste 0 933.3 0.8 41
2018-08-29 10:00:00 21.3 6 Noroeste 12 Noroeste 0 933.1 0.7 50
2018-08-29 09:00:00 18.8 7 Noroeste 14 Noroeste 0 932.9 0.4 61
2018-08-29 08:00:00 18.3 6 Noroeste 10 Noroeste 0 932.5 -0.1 63
2018-08-29 07:00:00 18.5 6 Noroeste 12 Noroeste 0 932.4 -0.3 61
2018-08-29 06:00:00 18.9 5 Noroeste 10 Noroeste 0 932.5 -0.1 59
2018-08-29 05:00:00 20.2 6 Noroeste 15 Noroeste 0 932.6 0 53
2018-08-29 04:00:00 20.7 6 Noroeste 15 Noroeste 0 932.7 0.5 48
2018-08-29 03:00:00 21.4 8 Noroeste 14 Noroeste 0 932.6 0.6 45
2018-08-29 02:00:00 22.3 9 Noroeste 21 Noroeste 0 932.6 0.9 39
2018-08-29 01:00:00 22.9 8 Noroeste 20 Noroeste 0 932.2 1.2 35
2018-08-29 00:00:00 24.4 9 Noroeste 23 Oeste 0 932 1.4 37
2018-08-28 23:00:00 26.5 13 Sudoeste 22 Oeste 0 931.7 1.4 28
2018-08-28 22:00:00 27.3 9 Sudoeste 19 Sudoeste 0 931 0.5 29
2018-08-28 21:00:00 29.2 12 Sudoeste 31 Sudoeste 0 930.6 -0.1 26
2018-08-28 20:00:00 31 18 Oeste 35 Sudoeste 0 930.3 -0.8 23
2018-08-28 19:00:00 32.7 15 Sudoeste 38 Sudoeste 0 930.5 -1.2 20
2018-08-28 18:00:00 33.3 15 Sudoeste 40 Sudoeste 0 930.7 -1.3 21
2018-08-28 17:00:00 33.9 14 Sur 42 Sur 0 931.1 -1.5 22
2018-08-28 16:00:00 33.8 16 Sudoeste 35 Sur 0 931.7 -1.3 21
2018-08-28 15:00:00 32.8 15 Sur 37 Sur 0 932 -1 21
2018-08-28 14:00:00 32.4 14 Sudoeste 33 Sur 0 932.6 0 22
2018-08-28 13:00:00 30.9 17 Sur 36 Sudoeste 0 933 0.4 28
2018-08-28 12:00:00 30.2 15 Sudoeste 35 Sudoeste 0 933 0.6 27
2018-08-28 11:00:00 28.4 18 Sudoeste 33 Sudoeste 0 932.6 1 33
2018-08-28 10:00:00 25.8 8 Sur 18 Sur 0 932.6 1.6 42
2018-08-28 09:00:00 22.5 5 Sudeste 8 Sudeste 0 932.4 1.2 52
2018-08-28 08:00:00 20.9 2 Oeste 15 Sudoeste 0 931.6 0.2 55
2018-08-28 07:00:00 21.9 4 Sudoeste 23 Sudoeste 0 931 -0.4 52
2018-08-28 06:00:00 23 9 Sur 27 Sudeste 0 931.2 -0.4 47
2018-08-28 05:00:00 23.4 10 Sudeste 24 Sur 0 931.4 -0.1 43
2018-08-28 04:00:00 23.6 11 Sur 24 Sur 0 931.4 -0.1 38
2018-08-28 03:00:00 24.4 11 Sur 33 Sur 0 931.6 0.4 34
2018-08-28 02:00:00 25.2 16 Sur 39 Sur 0 931.5 1.2 34
2018-08-28 01:00:00 26.4 13 Sur 37 Sur 0 931.5 2.1 27
2018-08-28 00:00:00 26.8 13 Sur 32 Sur 0 931.2 2.1 27
2018-08-27 23:00:00 28.6 7 Sur 21 Este 0 930.3 1 19
2018-08-27 22:00:00 30 11 Este 24 Este 0 929.4 -1.4 17
2018-08-27 21:00:00 31.8 9 Este 31 Este 0 929.1 -0.9 14
2018-08-27 20:00:00 32.8 15 Este 39 Sudeste 0 929.3 -0.3 14
2018-08-27 19:00:00 33.2 8 Noroeste 26 Noroeste 0 930.8 0 14
2018-08-27 18:00:00 35.1 15 Noroeste 25 Noroeste 0 930 -1.4 12
2018-08-27 17:00:00 36.5 6 Este 23 Nordeste 0 929.6 -1.9 12
2018-08-27 16:00:00 35 8 Noroeste 26 Sudoeste 0 930.8 -0.3 13
2018-08-27 15:00:00 35.3 18 Oeste 39 Sudoeste 0 931.4 0.2 13
2018-08-27 14:00:00 36.5 12 Sur 25 Sudoeste 0 931.5 0.5 11
2018-08-27 13:00:00 34.6 9 Sur 27 Sur 0 931.1 0.8 13
2018-08-27 12:00:00 33.2 6 Sudeste 18 Sur 0 931.2 1.4 18
2018-08-27 11:00:00 30.3 9 Sur 22 Sudeste 0 931 1.5 22
2018-08-27 10:00:00 28.2 8 Sudeste 18 Sudeste 0 930.3 1 28
2018-08-27 09:00:00 25.3 7 Sudeste 14 Sudeste 0 929.8 0.4 30
2018-08-27 08:00:00 23.1 8 Sudeste 15 Este 0 929.5 -0.3 31
2018-08-27 07:00:00 22.2 7 Este 13 Sudeste 0 929.3 -0.7 30
2018-08-27 06:00:00 24 6 Sudeste 11 Sudeste 0 929.4 -0.9 24
2018-08-27 05:00:00 23.7 8 Sudeste 10 Sudeste 0 929.8 -0.7 24
2018-08-27 04:00:00 24.4 6 Nordeste 11 Nordeste 0 930 -0.8 21
2018-08-27 03:00:00 24.2 8 Nordeste 11 Nordeste 0 930.3 -0.5 24
2018-08-27 02:00:00 24.8 6 Norte 12 Norte 0 930.5 -0.2 24
2018-08-27 01:00:00 26 7 Noroeste 12 Noroeste 0 930.8 0.6 22
2018-08-27 00:00:00 26.7 9 Noroeste 14 Oeste 0 930.8 1.2 22
2018-08-26 23:00:00 27 10 Oeste 17 Oeste 0 930.7 1.3 24
2018-08-26 22:00:00 28.3 8 Sudoeste 21 Sudoeste 0 930.2 0.9 21
2018-08-26 21:00:00 31 12 Sudoeste 21 Sudoeste 0 929.6 0.2 17
2018-08-26 20:00:00 33.7 11 Sudoeste 29 Sudoeste 0 929.4 -0.1 13
2018-08-26 19:00:00 35.1 12 Sur 31 Oeste 0 929.3 -0.8 13
2018-08-26 18:00:00 35.6 10 Oeste 30 Sudoeste 0 929.4 -1 12
2018-08-26 17:00:00 35.5 8 Sur 35 Sur 0 929.5 -1.3 13
2018-08-26 16:00:00 35.6 11 Sudoeste 30 Oeste 0 930.1 -1 12
2018-08-26 15:00:00 34.6 10 Oeste 28 Oeste 0 930.4 -1.1 11
2018-08-26 14:00:00 34 11 Oeste 26 Sudeste 0 930.8 -0.4 13
2018-08-26 13:00:00 33.6 4 Sudeste 11 Sudeste 0 931.1 0.3 13
2018-08-26 12:00:00 32 6 Sudoeste 15 Sur 0 931.5 1.2 16
2018-08-26 11:00:00 29.9 7 Sur 13 Sur 0 931.2 1.5 18
2018-08-26 10:00:00 27.6 3 Sudeste 8 Sudoeste 0 930.8 1.2 20
2018-08-26 09:00:00 23.7 5 Sur 15 Este 0 930.3 0.7 28
2018-08-26 08:00:00 21.5 8 Este 17 Este 0 929.7 0.2 27
2018-08-26 07:00:00 21.3 8 Nordeste 12 Nordeste 0 929.6 -0.1 28
2018-08-26 06:00:00 21.2 6 Noroeste 12 Noroeste 0 929.6 -0.2 28
2018-08-26 05:00:00 22.2 7 Noroeste 13 Norte 0 929.5 -0.6 27
2018-08-26 04:00:00 23.4 8 Noroeste 14 Noroeste 0 929.7 -0.3 25
2018-08-26 03:00:00 23.9 5 Noroeste 16 Noroeste 0 929.8 -0.2 23
2018-08-26 02:00:00 25.4 8 Noroeste 12 Noroeste 0 930.1 0.3 21
2018-08-26 01:00:00 24.9 5 Noroeste 9 Noroeste 0 930 0.7 22
2018-08-26 00:00:00 25.8 6 Noroeste 9 Noroeste 0 930 1.3 21
2018-08-25 23:00:00 26 6 Noroeste 9 Noroeste 0 929.8 1.4 21
2018-08-25 22:00:00 27.3 6 Norte 17 Noroeste 0 929.3 0.8 19
2018-08-25 21:00:00 29.7 8 Norte 23 Norte 0 928.7 0 16
2018-08-25 20:00:00 32.5 8 Sudoeste 18 Sudoeste 0 928.4 -0.8 19
2018-08-25 19:00:00 32.2 9 Oeste 39 Oeste 0 928.5 -1 18
2018-08-25 18:00:00 32.7 4 Oeste 18 Sudoeste 0 928.7 -1.4 16
2018-08-25 17:00:00 32.6 11 Sudoeste 44 Oeste 0 929.2 -1.4 18
2018-08-25 16:00:00 34.8 10 Sudoeste 25 Oeste 0 929.5 -1.7 16
2018-08-25 15:00:00 34.2 10 Sur 30 Sudoeste 0 930.1 -1.5 14
2018-08-25 14:00:00 33.7 10 Sudoeste 26 Sudoeste 0 930.6 -0.9 14
2018-08-25 13:00:00 33.5 5 Sudoeste 20 Sudoeste 0 931.2 -0.1 16
2018-08-25 12:00:00 31.9 7 Sudoeste 18 Sur 0 931.6 0.5 24
2018-08-25 11:00:00 29.5 7 Sudeste 17 Sudeste 0 931.5 0.6 26
2018-08-25 10:00:00 27.3 7 Sudeste 15 Sudeste 0 931.3 0.6 26
2018-08-25 09:00:00 24.3 5 Sudeste 14 Sudeste 0 931.1 0.4 29
2018-08-25 08:00:00 22.2 4 Sudeste 10 Sudeste 0 930.9 -0.2 32
2018-08-25 07:00:00 23.7 6 Sudeste 12 Sudeste 0 930.7 -0.7 27
2018-08-25 06:00:00 22.9 5 Nordeste 10 Norte 0 930.7 -0.9 31
2018-08-25 05:00:00 23.1 6 Norte 13 Noroeste 0 931.1 -0.8 35
2018-08-25 04:00:00 24.3 7 Noroeste 14 Noroeste 0 931.4 -0.7 33
2018-08-25 03:00:00 25.3 9 Noroeste 13 Noroeste 0 931.6 -0.5 30
2018-08-25 02:00:00 25.8 8 Noroeste 12 Oeste 0 931.9 -0.3 29
2018-08-25 01:00:00 25 7 Oeste 11 Sudoeste 0 932.1 0.2 35
2018-08-25 00:00:00 25.8 5 Sudoeste 9 Oeste 0 932.1 0.6 32
2018-08-24 23:00:00 26.5 6 Oeste 10 Oeste 0 932.2 0.9 31
2018-08-24 22:00:00 27.9 6 Oeste 16 Oeste 0 931.9 0.4 29
2018-08-24 21:00:00 30.3 3 Noroeste 16 Nordeste 0 931.5 -0.1 21
2018-08-24 20:00:00 32.6 6 Noroeste 19 Noroeste 0 931.3 -0.7 16
2018-08-24 19:00:00 33.1 9 Noroeste 29 Oeste 0 931.5 -1.2 17
2018-08-24 18:00:00 34.1 15 Noroeste 30 Noroeste 0 931.6 -1.6 14
2018-08-24 17:00:00 33.2 11 Noroeste 23 Noroeste 0 932 -1.6 17
2018-08-24 16:00:00 32.7 7 Noroeste 22 Oeste 0 932.7 -1.3 20
2018-08-24 15:00:00 32.2 11 Oeste 22 Noroeste 0 933.2 -0.9 22
2018-08-24 14:00:00 31.4 11 Sudoeste 21 Sudoeste 0 933.6 -0.4 23
2018-08-24 13:00:00 32.6 6 Sur 15 Sur 0 934 0.3 24
2018-08-24 12:00:00 30.3 7 Sur 16 Sur 0 934.1 0.6 29
2018-08-24 11:00:00 27.8 5 Sur 17 Sudeste 0 934 0.8 37
2018-08-24 10:00:00 25.3 7 Sur 17 Sudeste 0 933.7 0.8 43
2018-08-24 09:00:00 21.7 8 Sur 14 Sudeste 0 933.5 0.7 54
2018-08-24 08:00:00 19.7 5 Sudeste 10 Sudeste 0 933.2 0.1 57
2018-08-24 07:00:00 19.6 5 Este 14 Sudeste 0 932.9 -0.5 57
2018-08-24 06:00:00 20.5 9 Sur 19 Sur 0 932.8 -0.7 52
2018-08-24 05:00:00 21.1 9 Sur 15 Sur 0 933.1 -0.8 47
2018-08-24 04:00:00 21.7 6 Sudeste 12 Sudeste 0 933.4 -0.3 44
2018-08-24 03:00:00 23.2 8 Sudeste 21 Este 0 933.5 -0.3 39
2018-08-24 02:00:00 24.1 8 Sudeste 15 Nordeste 0 933.9 0.2 36
2018-08-24 01:00:00 23.5 6 Sudoeste 9 Sudoeste 0 933.7 0.3 33
2018-08-24 00:00:00 23.6 6 Sudoeste 8 Sur 0 933.8 0.2 33
2018-08-23 23:00:00 23.2 6 Sur 14 Sudeste 0.2 933.7 1.4 37
2018-08-23 22:00:00 24.1 8 Sudeste 20 Este 0 933.4 1 39
2018-08-23 21:00:00 23.3 12 Sudoeste 42 Norte 0.6 933.6 1.5 45
2018-08-23 20:00:00 28.3 14 Sur 29 Sudoeste 0 932.3 -0.1 29
2018-08-23 19:00:00 27.7 13 Nordeste 24 Nordeste 0 932.4 -0.2 32
2018-08-23 18:00:00 29.4 5 Sur 17 Sudeste 0 932.1 -0.9 27
2018-08-23 17:00:00 27.9 12 Sudeste 22 Sudeste 0.4 932.4 -1.2 41
2018-08-23 16:00:00 31.1 6 Norte 22 Norte 0 932.6 -1.3 20
2018-08-23 15:00:00 34.1 7 Sur 21 Oeste 0 933 -0.9 17
2018-08-23 14:00:00 32.4 5 Sudoeste 18 Sudoeste 0 933.6 -0.2 21
2018-08-23 13:00:00 31.8 5 Este 14 Norte 0 933.9 0.4 21
2018-08-23 12:00:00 30 6 Nordeste 13 Nordeste 0 933.9 0.6 23
2018-08-23 11:00:00 28.2 4 Nordeste 10 Este 0 933.8 0.9 30
2018-08-23 10:00:00 25 4 Nordeste 10 Nordeste 0 933.5 1.1 37
2018-08-23 09:00:00 21 4 Nordeste 12 Norte 0 933.3 0.7 51
2018-08-23 08:00:00 18.9 5 Norte 13 Sur 0 932.9 0.3 54
2018-08-23 07:00:00 19.6 9 Sur 13 Sur 0 932.4 -0.5 52
2018-08-23 06:00:00 20 8 Sur 12 Sudeste 0 932.6 -0.6 50
2018-08-23 05:00:00 20.7 6 Sudeste 13 Sudeste 0 932.6 -1 48
2018-08-23 04:00:00 20.9 5 Sudeste 9 Sudeste 0 932.9 -0.8 46
2018-08-23 03:00:00 21.4 4 Sudeste 14 Sudeste 0 933.2 -0.2 43
2018-08-23 02:00:00 20.6 5 Nordeste 12 Norte 0 933.6 0.2 47
2018-08-23 01:00:00 20.5 8 Nordeste 19 Nordeste 0 933.7 0.4 51
2018-08-23 00:00:00 21.6 9 Noroeste 24 Noroeste 0 933.4 0.9 47